createdAt,value
2017-05-31T00:00:42.884Z,15.90
2017-05-31T00:03:10.073Z,16.02
2017-05-31T00:05:37.380Z,15.52
2017-05-31T00:08:04.589Z,15.54
2017-05-31T00:10:31.854Z,15.84
2017-05-31T00:12:59.096Z,16.14
2017-05-31T00:15:26.460Z,16.26
2017-05-31T00:17:53.740Z,16.14
2017-05-31T00:20:21.003Z,17.78
2017-05-31T00:22:47.467Z,17.40
2017-05-31T00:25:14.803Z,18.08
2017-05-31T00:27:42.392Z,16.78
2017-05-31T00:30:09.688Z,17.50
2017-05-31T00:32:36.998Z,17.36
2017-05-31T00:35:03.732Z,16.16
2017-05-31T00:37:30.936Z,17.72
2017-05-31T00:39:58.234Z,18.88
2017-05-31T00:42:24.767Z,17.16
2017-05-31T00:44:51.988Z,18.80
2017-05-31T00:47:18.541Z,17.88
2017-05-31T00:49:45.849Z,16.98
2017-05-31T00:52:13.112Z,19.12
2017-05-31T00:54:40.531Z,19.70
2017-05-31T00:57:07.755Z,18.26
2017-05-31T00:59:35.076Z,19.34
2017-05-31T01:02:01.563Z,18.98
2017-05-31T01:04:28.998Z,18.24
2017-05-31T01:06:56.244Z,19.04
2017-05-31T01:09:23.446Z,18.12
2017-05-31T01:11:50.667Z,19.20
2017-05-31T01:14:18.000Z,18.70
2017-05-31T01:16:45.191Z,20.80
2017-05-31T01:19:12.405Z,19.04
2017-05-31T01:21:38.880Z,20.58
2017-05-31T01:24:06.169Z,19.40
2017-05-31T01:26:33.545Z,20.26
2017-05-31T01:29:00.000Z,20.32
2017-05-31T01:31:27.188Z,20.58
2017-05-31T01:33:54.603Z,18.84
2017-05-31T01:36:21.812Z,20.24
2017-05-31T01:38:48.984Z,20.40
2017-05-31T01:41:16.231Z,19.58
2017-05-31T01:43:43.379Z,20.70
2017-05-31T01:46:10.592Z,20.58
2017-05-31T01:48:37.790Z,21.30
2017-05-31T01:51:04.994Z,21.08
2017-05-31T01:53:32.259Z,20.48
2017-05-31T01:55:59.567Z,20.86
2017-05-31T01:58:26.802Z,22.04
2017-05-31T02:00:54.346Z,22.50
2017-05-31T02:03:21.494Z,21.12
2017-05-31T02:05:48.651Z,21.52
2017-05-31T02:08:15.894Z,21.92
2017-05-31T02:10:43.083Z,20.70
2017-05-31T02:13:10.296Z,20.96
2017-05-31T02:15:37.520Z,21.76
2017-05-31T02:18:04.751Z,19.86
2017-05-31T02:20:31.955Z,18.96
2017-05-31T02:22:59.287Z,20.08
2017-05-31T02:25:26.568Z,21.82
2017-05-31T02:27:53.733Z,21.44
2017-05-31T02:30:20.912Z,20.64
2017-05-31T02:32:48.099Z,20.92
2017-05-31T02:35:15.304Z,19.48
2017-05-31T02:37:42.487Z,19.42
2017-05-31T02:40:09.728Z,19.10
2017-05-31T02:42:36.904Z,17.38
2017-05-31T02:45:04.134Z,17.44
2017-05-31T02:47:31.333Z,16.70
2017-05-31T02:49:58.538Z,16.58
2017-05-31T02:52:25.810Z,16.56
2017-05-31T02:54:53.058Z,16.22
2017-05-31T02:57:20.253Z,15.94
2017-05-31T02:59:47.467Z,15.86
2017-05-31T03:02:14.713Z,17.12
2017-05-31T03:04:41.875Z,19.04
2017-05-31T03:07:09.072Z,17.06
2017-05-31T03:09:36.284Z,16.74
2017-05-31T03:12:03.457Z,16.74
2017-05-31T03:14:30.693Z,15.90
2017-05-31T03:16:57.915Z,15.44
2017-05-31T03:19:25.072Z,15.68
2017-05-31T03:21:52.239Z,18.00
2017-05-31T03:24:19.427Z,16.74
2017-05-31T03:26:46.620Z,18.04
2017-05-31T03:29:13.862Z,17.70
2017-05-31T03:31:41.130Z,18.58
2017-05-31T03:34:08.280Z,17.78
2017-05-31T03:36:35.515Z,19.24
2017-05-31T03:39:02.751Z,18.32
2017-05-31T03:41:29.948Z,17.72
2017-05-31T03:43:57.171Z,18.28
2017-05-31T03:46:24.343Z,18.18
2017-05-31T03:48:51.578Z,18.54
2017-05-31T03:51:18.779Z,18.60
2017-05-31T03:53:45.967Z,19.78
2017-05-31T03:56:13.180Z,19.12
2017-05-31T03:58:40.399Z,18.54
2017-05-31T04:01:07.601Z,19.14
2017-05-31T04:03:34.920Z,19.28
2017-05-31T04:06:02.292Z,19.12
2017-05-31T04:08:29.479Z,17.76
2017-05-31T04:10:56.764Z,18.14
2017-05-31T04:13:23.980Z,16.82
2017-05-31T04:15:51.207Z,19.08
2017-05-31T04:18:18.644Z,17.74
2017-05-31T04:20:45.823Z,18.10
2017-05-31T04:23:13.150Z,16.66
2017-05-31T04:25:40.420Z,17.20
2017-05-31T04:28:07.610Z,15.38
2017-05-31T04:30:34.877Z,17.14
2017-05-31T04:33:02.211Z,15.50
2017-05-31T04:35:29.387Z,14.62
2017-05-31T04:37:56.885Z,15.22
2017-05-31T04:40:24.091Z,15.46
2017-05-31T04:42:51.301Z,16.34
2017-05-31T04:45:18.527Z,15.50
2017-05-31T04:47:45.698Z,15.84
2017-05-31T04:50:12.892Z,14.84
2017-05-31T04:52:40.102Z,14.78
2017-05-31T04:55:07.280Z,13.82
2017-05-31T04:57:34.505Z,15.24
2017-05-31T05:00:01.735Z,14.40
2017-05-31T05:02:28.955Z,15.36
2017-05-31T05:04:56.201Z,13.68
2017-05-31T05:07:23.461Z,14.76
2017-05-31T05:09:50.627Z,14.62
2017-05-31T05:12:17.914Z,14.04
2017-05-31T05:14:45.177Z,14.40
2017-05-31T05:17:12.471Z,15.10
2017-05-31T05:19:39.692Z,14.32
2017-05-31T05:22:06.890Z,15.08
2017-05-31T05:24:34.125Z,15.40
2017-05-31T05:27:01.430Z,15.34
2017-05-31T05:29:28.701Z,16.76
2017-05-31T05:31:56.003Z,13.78
2017-05-31T05:34:23.355Z,14.54
2017-05-31T05:36:50.539Z,14.00
2017-05-31T05:39:17.708Z,14.74
2017-05-31T05:41:45.034Z,16.84
2017-05-31T05:44:12.260Z,14.60
2017-05-31T05:46:39.540Z,13.04
2017-05-31T05:49:06.751Z,14.32
2017-05-31T05:51:33.943Z,14.90
2017-05-31T05:54:01.194Z,15.70
2017-05-31T05:56:28.398Z,16.30
2017-05-31T05:58:55.679Z,15.38
2017-05-31T06:01:22.883Z,14.00
2017-05-31T06:03:50.190Z,13.70
2017-05-31T06:06:17.391Z,14.38
2017-05-31T06:08:44.698Z,14.38
2017-05-31T06:11:11.964Z,16.90
2017-05-31T06:13:39.201Z,16.12
2017-05-31T06:16:06.441Z,14.96
2017-05-31T06:18:33.626Z,15.12
2017-05-31T06:21:00.800Z,16.26
2017-05-31T06:23:28.104Z,15.88
2017-05-31T06:25:55.342Z,14.38
2017-05-31T06:28:22.526Z,15.14
2017-05-31T06:30:49.811Z,16.38
2017-05-31T06:33:17.029Z,17.02
2017-05-31T06:35:44.212Z,17.70
2017-05-31T06:38:11.463Z,16.44
2017-05-31T06:40:38.639Z,17.94
2017-05-31T06:43:05.864Z,17.72
2017-05-31T06:45:33.159Z,17.36
2017-05-31T06:48:00.362Z,16.84
2017-05-31T06:50:27.559Z,15.20
2017-05-31T06:52:54.820Z,15.62
2017-05-31T06:55:21.979Z,17.06
2017-05-31T06:57:49.213Z,18.88
2017-05-31T07:00:16.466Z,17.96
2017-05-31T07:02:43.680Z,16.84
2017-05-31T07:05:10.883Z,20.80
2017-05-31T07:07:38.104Z,18.80
2017-05-31T07:10:05.269Z,17.38
2017-05-31T07:12:32.494Z,18.54
2017-05-31T07:14:59.674Z,18.46
2017-05-31T07:17:26.854Z,17.96
2017-05-31T07:19:54.136Z,19.14
2017-05-31T07:22:21.371Z,18.02
2017-05-31T07:24:49.311Z,19.10
2017-05-31T07:27:16.629Z,18.38
2017-05-31T07:29:43.764Z,17.84
2017-05-31T07:32:11.264Z,17.12
2017-05-31T07:34:38.623Z,14.80
2017-05-31T07:37:05.828Z,14.76
2017-05-31T07:39:33.223Z,14.06
2017-05-31T07:42:00.437Z,14.94
2017-05-31T07:44:27.664Z,14.20
2017-05-31T07:46:54.929Z,15.66
2017-05-31T07:49:22.135Z,14.06
2017-05-31T07:51:49.577Z,12.02
2017-05-31T07:54:16.807Z,13.14
2017-05-31T07:56:43.991Z,12.90
2017-05-31T07:59:11.225Z,13.70
2017-05-31T08:01:38.455Z,13.18
2017-05-31T08:04:05.706Z,13.68
2017-05-31T08:06:33.026Z,12.32
2017-05-31T08:09:00.213Z,12.26
2017-05-31T08:11:27.525Z,13.18
2017-05-31T08:13:54.989Z,14.26
2017-05-31T08:16:22.273Z,14.60
2017-05-31T08:18:49.584Z,15.06
2017-05-31T08:21:16.900Z,13.84
2017-05-31T08:23:43.331Z,13.38
2017-05-31T08:26:10.605Z,14.28
2017-05-31T08:28:37.804Z,13.76
2017-05-31T08:31:05.057Z,14.44
2017-05-31T08:33:32.230Z,14.46
2017-05-31T08:35:59.527Z,15.70
2017-05-31T08:38:26.892Z,15.54
2017-05-31T08:40:54.094Z,14.94
2017-05-31T08:43:20.536Z,13.86
2017-05-31T08:45:47.776Z,15.64
2017-05-31T08:48:14.969Z,15.08
2017-05-31T08:50:57.035Z,15.46
2017-05-31T08:53:24.249Z,13.38
2017-05-31T08:55:51.446Z,13.72
2017-05-31T08:58:18.681Z,13.28
2017-05-31T09:00:45.861Z,12.94
2017-05-31T09:03:13.311Z,12.56
2017-05-31T09:05:40.632Z,12.76
2017-05-31T09:08:07.920Z,17.08
2017-05-31T09:10:35.109Z,13.34
2017-05-31T09:13:02.323Z,13.58
2017-05-31T09:15:29.544Z,12.90
2017-05-31T09:17:56.808Z,12.54
2017-05-31T09:20:24.100Z,12.46
2017-05-31T09:22:51.259Z,13.08
2017-05-31T09:25:18.461Z,13.08
2017-05-31T09:27:45.696Z,13.44
2017-05-31T09:30:12.981Z,12.16
2017-05-31T09:32:40.194Z,10.08
2017-05-31T09:35:07.419Z,12.48
2017-05-31T09:37:34.780Z,12.72
2017-05-31T09:40:01.990Z,12.54
2017-05-31T09:42:29.204Z,11.56
2017-05-31T09:44:56.594Z,11.56
2017-05-31T09:47:23.797Z,11.34
2017-05-31T09:49:51.119Z,10.96
2017-05-31T09:52:19.295Z,11.00
2017-05-31T09:54:46.537Z,10.32
2017-05-31T09:57:13.749Z,10.96
2017-05-31T09:59:40.947Z,11.30
2017-05-31T10:02:08.155Z,10.82
2017-05-31T10:04:35.381Z,11.36
2017-05-31T10:07:02.559Z,9.26
2017-05-31T10:09:29.782Z,9.40
2017-05-31T10:11:56.969Z,9.76
2017-05-31T10:14:24.197Z,8.92
2017-05-31T10:16:51.435Z,8.26
2017-05-31T10:19:18.608Z,9.12
2017-05-31T10:21:45.825Z,8.12
2017-05-31T10:24:13.077Z,8.80
2017-05-31T10:26:40.348Z,8.04
2017-05-31T10:29:07.616Z,7.90
2017-05-31T10:31:34.879Z,7.58
2017-05-31T10:34:02.070Z,7.84
2017-05-31T10:36:29.323Z,8.16
2017-05-31T10:38:56.492Z,7.80
2017-05-31T10:41:23.713Z,7.72
2017-05-31T10:43:51.097Z,7.68
2017-05-31T10:46:18.332Z,10.36
2017-05-31T10:48:45.521Z,7.42
2017-05-31T10:51:12.863Z,7.02
2017-05-31T10:53:40.048Z,7.68
2017-05-31T10:56:07.282Z,7.52
2017-05-31T10:58:34.667Z,7.78
2017-05-31T11:01:01.861Z,8.14
2017-05-31T11:03:29.200Z,7.62
2017-05-31T11:05:58.472Z,7.24
2017-05-31T11:08:25.724Z,7.28
2017-05-31T11:10:53.012Z,7.10
2017-05-31T11:13:20.165Z,6.38
2017-05-31T11:15:47.418Z,7.18
2017-05-31T11:18:14.769Z,7.86
2017-05-31T11:20:42.021Z,7.44
2017-05-31T11:23:09.240Z,7.34
2017-05-31T11:25:36.568Z,7.16
2017-05-31T11:28:03.763Z,6.52
2017-05-31T11:30:31.080Z,8.10
2017-05-31T11:32:58.307Z,7.80
2017-05-31T11:35:25.568Z,8.56
2017-05-31T11:37:52.760Z,10.06
2017-05-31T11:40:20.037Z,7.72
2017-05-31T11:42:47.383Z,7.30
2017-05-31T11:45:14.760Z,6.94
2017-05-31T11:47:41.967Z,8.64
2017-05-31T11:50:09.303Z,8.24
2017-05-31T11:52:37.024Z,7.56
2017-05-31T11:55:04.261Z,7.24
2017-05-31T11:57:31.512Z,6.92
2017-05-31T11:59:58.868Z,6.02
2017-05-31T12:02:26.117Z,6.20
2017-05-31T12:04:53.351Z,6.40
2017-05-31T12:07:21.281Z,6.12
2017-05-31T12:09:49.339Z,4.92
2017-05-31T12:12:16.593Z,6.64
2017-05-31T12:14:43.827Z,6.14
2017-05-31T12:17:11.097Z,5.56
2017-05-31T12:19:38.310Z,5.82
2017-05-31T12:22:06.083Z,6.68
2017-05-31T12:24:33.291Z,5.60
2017-05-31T12:27:00.486Z,6.06
2017-05-31T12:29:27.706Z,6.12
2017-05-31T12:31:55.108Z,5.70
2017-05-31T12:34:22.288Z,6.26
2017-05-31T12:36:49.579Z,5.42
2017-05-31T12:39:16.835Z,5.26
2017-05-31T12:41:44.023Z,5.20
2017-05-31T12:44:11.360Z,4.96
2017-05-31T12:46:38.572Z,5.40
2017-05-31T12:49:05.756Z,4.66
2017-05-31T12:51:33.080Z,5.14
2017-05-31T12:54:00.323Z,5.40
2017-05-31T12:56:27.542Z,5.54
2017-05-31T12:58:54.875Z,5.42
2017-05-31T13:01:22.085Z,5.48
2017-05-31T13:03:49.376Z,8.46
2017-05-31T13:06:16.656Z,4.98
2017-05-31T13:08:43.891Z,4.92
2017-05-31T13:11:11.220Z,5.94
2017-05-31T13:13:38.458Z,4.76
2017-05-31T13:16:05.692Z,5.28
2017-05-31T13:18:32.904Z,4.68
2017-05-31T13:21:00.134Z,5.50
2017-05-31T13:23:27.420Z,4.28
2017-05-31T13:25:54.612Z,4.58
2017-05-31T13:28:21.824Z,4.88
2017-05-31T13:30:49.125Z,6.34
2017-05-31T13:33:16.369Z,4.58
2017-05-31T13:35:43.659Z,5.28
2017-05-31T13:38:11.189Z,5.08
2017-05-31T13:40:40.984Z,5.26
2017-05-31T13:43:08.181Z,5.08
2017-05-31T13:45:35.388Z,4.96
2017-05-31T13:48:02.685Z,6.36
2017-05-31T13:50:30.132Z,5.00
2017-05-31T13:52:57.454Z,5.06
2017-05-31T13:55:24.787Z,5.34
2017-05-31T13:57:52.010Z,5.84
2017-05-31T14:00:19.283Z,5.56
2017-05-31T14:02:46.636Z,5.30
2017-05-31T14:05:13.833Z,4.74
2017-05-31T14:07:41.096Z,4.90
2017-05-31T14:10:08.292Z,5.70
2017-05-31T14:15:29.675Z,6.56
2017-05-31T14:17:57.080Z,6.12
2017-05-31T14:20:24.396Z,5.28
2017-05-31T14:22:51.642Z,5.60
2017-05-31T14:25:19.028Z,5.30
2017-05-31T14:27:46.263Z,5.60
2017-05-31T14:30:13.502Z,6.04
2017-05-31T14:32:40.806Z,7.22
2017-05-31T14:35:08.098Z,6.92
2017-05-31T14:37:35.621Z,8.64
2017-05-31T14:40:02.893Z,7.06
2017-05-31T14:42:30.104Z,6.32
2017-05-31T14:44:57.409Z,6.68
2017-05-31T14:47:24.627Z,5.90
2017-05-31T14:49:51.816Z,4.98
2017-05-31T14:52:19.147Z,5.52
2017-05-31T14:54:46.399Z,5.26
2017-05-31T14:57:13.634Z,5.34
2017-05-31T14:59:41.020Z,6.02
2017-05-31T15:02:08.325Z,5.16
2017-05-31T15:04:35.610Z,7.40
2017-05-31T15:07:02.875Z,5.66
2017-05-31T15:09:30.164Z,4.60
2017-05-31T15:11:57.428Z,5.70
2017-05-31T15:14:24.673Z,4.60
2017-05-31T15:16:51.921Z,5.10
2017-05-31T15:19:19.382Z,4.50
2017-05-31T15:21:46.599Z,5.04
2017-05-31T15:24:13.830Z,4.90
2017-05-31T15:26:41.099Z,5.50
2017-05-31T15:29:08.368Z,4.60
2017-05-31T15:31:35.897Z,5.10
2017-05-31T15:34:03.152Z,4.48
2017-05-31T15:36:30.460Z,5.04
2017-05-31T15:38:57.888Z,4.68
2017-05-31T15:41:25.236Z,5.72
2017-05-31T15:43:52.471Z,5.02
2017-05-31T15:46:19.721Z,4.10
2017-05-31T15:48:47.161Z,4.60
2017-05-31T15:51:14.568Z,4.82
2017-05-31T15:53:41.863Z,4.62
2017-05-31T15:56:09.144Z,4.82
2017-05-31T15:58:36.489Z,7.68
2017-05-31T16:01:03.759Z,4.10
2017-05-31T16:03:31.084Z,5.70
2017-05-31T16:05:58.320Z,5.50
2017-05-31T16:08:25.580Z,4.16
2017-05-31T16:10:52.881Z,4.68
2017-05-31T16:13:20.151Z,4.40
2017-05-31T16:15:47.606Z,4.48
2017-05-31T16:18:14.886Z,4.40
2017-05-31T16:20:42.080Z,4.50
2017-05-31T16:23:09.331Z,3.90
2017-05-31T16:25:36.540Z,3.90
2017-05-31T16:28:03.732Z,3.72
2017-05-31T16:30:31.032Z,4.36
2017-05-31T16:32:58.294Z,4.00
2017-05-31T16:35:25.556Z,4.56
2017-05-31T16:37:52.816Z,4.64
2017-05-31T16:40:20.055Z,4.12
2017-05-31T16:42:47.327Z,4.42
2017-05-31T16:45:13.883Z,5.02
2017-05-31T16:47:40.383Z,3.76
2017-05-31T16:50:07.567Z,4.52
2017-05-31T16:52:34.843Z,4.04
2017-05-31T16:55:02.079Z,4.06
2017-05-31T16:57:29.408Z,3.90
2017-05-31T16:59:56.624Z,3.12
2017-05-31T17:02:23.811Z,3.26
2017-05-31T17:04:50.991Z,3.72
2017-05-31T17:07:18.213Z,3.72
2017-05-31T17:09:45.496Z,3.58
2017-05-31T17:12:12.765Z,3.30
2017-05-31T17:14:40.001Z,3.76
2017-05-31T17:17:07.324Z,3.28
2017-05-31T17:19:34.585Z,5.32
2017-05-31T17:22:01.844Z,3.80
2017-05-31T17:24:29.075Z,4.18
2017-05-31T17:26:56.286Z,4.42
2017-05-31T17:29:23.504Z,3.76
2017-05-31T17:31:50.725Z,4.16
2017-05-31T17:34:17.999Z,3.58
2017-05-31T17:36:45.188Z,3.50
2017-05-31T17:39:11.665Z,4.30
2017-05-31T17:41:38.124Z,4.28
2017-05-31T17:44:05.335Z,3.90
2017-05-31T17:46:32.561Z,3.86
2017-05-31T17:48:59.720Z,4.22
2017-05-31T17:51:26.898Z,4.22
2017-05-31T17:53:54.161Z,5.14
2017-05-31T17:56:21.842Z,3.28
2017-05-31T17:58:49.197Z,4.64
2017-05-31T18:01:16.480Z,3.64
2017-05-31T18:03:43.660Z,4.90
2017-05-31T18:06:10.961Z,5.40
2017-05-31T18:08:53.240Z,4.80
2017-05-31T18:11:20.492Z,5.06
2017-05-31T18:13:47.796Z,5.12
2017-05-31T18:16:15.067Z,5.72
2017-05-31T18:18:42.363Z,8.10
2017-05-31T18:21:09.596Z,5.10
2017-05-31T18:23:36.799Z,7.06
2017-05-31T18:26:04.104Z,4.86
2017-05-31T18:28:31.360Z,5.34
2017-05-31T18:30:58.599Z,5.76
2017-05-31T18:33:25.844Z,5.18
2017-05-31T18:35:53.260Z,5.56
2017-05-31T18:38:20.693Z,4.84
2017-05-31T18:40:47.945Z,5.26
2017-05-31T18:43:15.252Z,5.84
2017-05-31T18:45:42.497Z,5.62
2017-05-31T18:48:09.684Z,5.20
2017-05-31T18:50:36.996Z,6.48
2017-05-31T18:53:04.292Z,6.68
2017-05-31T18:55:31.524Z,6.12
2017-05-31T18:57:58.801Z,5.70
2017-05-31T19:00:26.048Z,6.68
2017-05-31T19:02:53.284Z,5.98
2017-05-31T19:05:20.589Z,5.84
2017-05-31T19:07:47.808Z,6.28
2017-05-31T19:10:15.261Z,6.86
2017-05-31T19:12:42.546Z,6.20
2017-05-31T19:15:09.774Z,6.18
2017-05-31T19:17:37.037Z,7.28
2017-05-31T19:20:04.221Z,8.18
2017-05-31T19:22:31.453Z,6.46
2017-05-31T19:24:58.695Z,6.92
2017-05-31T19:27:25.983Z,7.06
2017-05-31T19:29:53.424Z,6.50
2017-05-31T19:32:20.672Z,6.50
2017-05-31T19:34:47.948Z,6.20
2017-05-31T19:37:15.335Z,6.02
2017-05-31T19:39:42.600Z,6.06
2017-05-31T19:42:09.812Z,5.96
2017-05-31T19:44:37.131Z,7.46
2017-05-31T19:47:04.415Z,7.36
2017-05-31T19:49:31.688Z,6.58
2017-05-31T19:51:59.087Z,7.62
2017-05-31T19:54:27.622Z,7.18
2017-05-31T19:56:54.941Z,7.50
2017-05-31T19:59:22.244Z,7.50
2017-05-31T20:01:49.624Z,7.36
2017-05-31T20:04:16.893Z,8.56
2017-05-31T20:06:44.215Z,8.14
2017-05-31T20:09:11.531Z,7.50
2017-05-31T20:11:38.975Z,7.72
2017-05-31T20:14:07.056Z,8.78
2017-05-31T20:16:34.440Z,8.60
2017-05-31T20:19:02.683Z,7.66
2017-05-31T20:21:29.894Z,8.22
2017-05-31T20:23:57.207Z,8.06
2017-05-31T20:26:25.308Z,8.44
2017-05-31T20:28:52.599Z,8.76
2017-05-31T20:31:19.838Z,8.70
2017-05-31T20:33:47.170Z,8.76
2017-05-31T20:36:14.541Z,8.72
2017-05-31T20:38:41.814Z,8.28
2017-05-31T20:41:09.178Z,8.22
2017-05-31T20:43:36.410Z,7.82
2017-05-31T20:46:04.387Z,8.28
2017-05-31T20:48:31.662Z,7.86
2017-05-31T20:50:58.880Z,7.64
2017-05-31T20:53:26.152Z,7.64
2017-05-31T20:55:53.456Z,7.84
2017-05-31T20:58:20.895Z,7.58
2017-05-31T21:00:48.280Z,8.18
2017-05-31T21:03:14.941Z,16.92
2017-05-31T21:05:42.267Z,8.08
2017-05-31T21:08:09.592Z,7.76
2017-05-31T21:10:37.093Z,7.22
2017-05-31T21:13:04.355Z,8.98
2017-05-31T21:15:31.688Z,10.22
2017-05-31T21:17:59.084Z,8.96
2017-05-31T21:20:26.394Z,8.60
2017-05-31T21:22:53.709Z,8.24
2017-05-31T21:25:20.287Z,11.10
2017-05-31T21:27:47.013Z,7.94
2017-05-31T21:30:14.257Z,7.82
2017-05-31T21:32:40.793Z,8.58
2017-05-31T21:35:08.205Z,9.32
2017-05-31T21:37:35.484Z,9.92
2017-05-31T21:40:02.880Z,9.06
2017-05-31T21:42:30.148Z,11.54
2017-05-31T21:44:56.697Z,8.12
2017-05-31T21:47:23.975Z,7.74
2017-05-31T21:49:50.547Z,9.00
2017-05-31T21:52:17.740Z,10.02
2017-05-31T21:54:45.092Z,10.84
2017-05-31T21:57:12.490Z,9.60
2017-05-31T21:59:39.824Z,9.04
2017-05-31T22:02:07.163Z,10.80
2017-05-31T22:04:33.840Z,10.44
2017-05-31T22:07:00.425Z,8.90
2017-05-31T22:09:27.688Z,10.90
2017-05-31T22:11:54.291Z,10.54
2017-05-31T22:14:21.589Z,9.90
2017-05-31T22:16:48.171Z,9.28
2017-05-31T22:19:15.421Z,9.30
2017-05-31T22:21:43.007Z,8.92
2017-05-31T22:24:10.221Z,8.86
2017-05-31T22:26:37.476Z,9.70
2017-05-31T22:29:04.022Z,9.68
2017-05-31T22:31:31.292Z,9.74
2017-05-31T22:33:58.716Z,9.44
2017-05-31T22:36:25.449Z,9.52
2017-05-31T22:38:52.855Z,8.26
2017-05-31T22:41:20.121Z,11.10
2017-05-31T22:43:47.351Z,10.18
2017-05-31T22:46:14.718Z,9.32
2017-05-31T22:48:41.940Z,10.40
2017-05-31T22:51:09.185Z,10.10
2017-05-31T22:53:36.567Z,11.04
2017-05-31T22:56:03.798Z,10.68
2017-05-31T22:58:31.118Z,9.44
2017-05-31T23:00:58.324Z,10.56
2017-05-31T23:03:25.547Z,10.90
2017-05-31T23:05:52.795Z,10.48
2017-05-31T23:08:20.019Z,12.78
2017-05-31T23:10:47.280Z,11.80
2017-05-31T23:13:14.696Z,10.18
2017-05-31T23:15:42.005Z,13.70
2017-05-31T23:18:09.343Z,15.26
2017-05-31T23:20:37.433Z,11.22
2017-05-31T23:23:04.760Z,10.96
2017-05-31T23:25:32.006Z,9.84
2017-05-31T23:27:59.213Z,10.52
2017-05-31T23:30:26.445Z,10.02
2017-05-31T23:32:53.664Z,12.40
2017-05-31T23:35:21.011Z,10.76
2017-05-31T23:37:48.264Z,11.06
2017-05-31T23:40:15.484Z,10.66
2017-05-31T23:42:42.921Z,11.00
2017-05-31T23:45:10.150Z,12.20
2017-05-31T23:47:37.311Z,10.70
2017-05-31T23:50:04.633Z,11.18
2017-05-31T23:52:31.873Z,10.94
2017-05-31T23:54:59.275Z,10.94
2017-05-31T23:57:26.511Z,13.86
2017-05-31T23:59:53.736Z,9.78
